sensor_id;sensor_type;location;lat;lon;timestamp;P1;durP1;ratioP1;P2;durP2;ratioP2
20814;SDS011;10568;48.176;16.316;2023-03-14T00:01:51;3.80;;;2.60;;
20814;SDS011;10568;48.176;16.316;2023-03-14T00:04:16;3.63;;;2.70;;
20814;SDS011;10568;48.176;16.316;2023-03-14T00:06:42;5.40;;;3.00;;
20814;SDS011;10568;48.176;16.316;2023-03-14T00:09:08;6.20;;;2.80;;
20814;SDS011;10568;48.176;16.316;2023-03-14T00:11:33;4.37;;;2.37;;
20814;SDS011;10568;48.176;16.316;2023-03-14T00:13:59;5.97;;;2.70;;
20814;SDS011;10568;48.176;16.316;2023-03-14T00:16:26;4.90;;;2.63;;
20814;SDS011;10568;48.176;16.316;2023-03-14T00:18:52;6.93;;;3.23;;
20814;SDS011;10568;48.176;16.316;2023-03-14T00:21:18;4.40;;;2.53;;
20814;SDS011;10568;48.176;16.316;2023-03-14T00:23:44;6.33;;;2.90;;
20814;SDS011;10568;48.176;16.316;2023-03-14T00:26:11;5.23;;;2.70;;
20814;SDS011;10568;48.176;16.316;2023-03-14T00:28:38;4.13;;;2.70;;
20814;SDS011;10568;48.176;16.316;2023-03-14T00:31:06;3.97;;;2.70;;
20814;SDS011;10568;48.176;16.316;2023-03-14T00:33:33;4.23;;;2.20;;
20814;SDS011;10568;48.176;16.316;2023-03-14T00:36:01;4.70;;;2.50;;
20814;SDS011;10568;48.176;16.316;2023-03-14T00:38:28;4.00;;;2.50;;
20814;SDS011;10568;48.176;16.316;2023-03-14T00:40:55;7.17;;;3.00;;
20814;SDS011;10568;48.176;16.316;2023-03-14T00:43:21;4.10;;;2.70;;
20814;SDS011;10568;48.176;16.316;2023-03-14T00:45:51;5.17;;;2.57;;
20814;SDS011;10568;48.176;16.316;2023-03-14T00:48:18;5.93;;;2.47;;
20814;SDS011;10568;48.176;16.316;2023-03-14T00:50:44;4.27;;;2.50;;
20814;SDS011;10568;48.176;16.316;2023-03-14T00:53:10;4.50;;;2.87;;
20814;SDS011;10568;48.176;16.316;2023-03-14T00:55:37;3.13;;;2.77;;
20814;SDS011;10568;48.176;16.316;2023-03-14T00:58:04;4.00;;;2.67;;
20814;SDS011;10568;48.176;16.316;2023-03-14T01:00:30;4.33;;;2.47;;
20814;SDS011;10568;48.176;16.316;2023-03-14T01:02:56;4.33;;;2.93;;
20814;SDS011;10568;48.176;16.316;2023-03-14T01:05:22;6.07;;;2.60;;
20814;SDS011;10568;48.176;16.316;2023-03-14T01:07:48;4.30;;;2.57;;
20814;SDS011;10568;48.176;16.316;2023-03-14T01:10:14;3.20;;;2.20;;
20814;SDS011;10568;48.176;16.316;2023-03-14T01:12:40;3.07;;;2.20;;
20814;SDS011;10568;48.176;16.316;2023-03-14T01:15:05;3.10;;;2.40;;
20814;SDS011;10568;48.176;16.316;2023-03-14T01:17:32;4.57;;;2.37;;
20814;SDS011;10568;48.176;16.316;2023-03-14T01:19:57;3.03;;;2.27;;
20814;SDS011;10568;48.176;16.316;2023-03-14T01:22:24;4.53;;;2.77;;
20814;SDS011;10568;48.176;16.316;2023-03-14T01:24:50;4.47;;;2.37;;
20814;SDS011;10568;48.176;16.316;2023-03-14T01:27:15;2.80;;;2.10;;
20814;SDS011;10568;48.176;16.316;2023-03-14T01:29:41;4.87;;;2.33;;
20814;SDS011;10568;48.176;16.316;2023-03-14T01:32:07;4.00;;;1.87;;
20814;SDS011;10568;48.176;16.316;2023-03-14T01:34:32;3.13;;;2.13;;
20814;SDS011;10568;48.176;16.316;2023-03-14T01:36:58;5.87;;;2.40;;
20814;SDS011;10568;48.176;16.316;2023-03-14T01:39:24;3.90;;;2.60;;
20814;SDS011;10568;48.176;16.316;2023-03-14T01:41:49;3.33;;;2.30;;
20814;SDS011;10568;48.176;16.316;2023-03-14T01:44:15;4.43;;;2.40;;
20814;SDS011;10568;48.176;16.316;2023-03-14T01:46:41;4.00;;;2.60;;
20814;SDS011;10568;48.176;16.316;2023-03-14T01:49:27;4.13;;;2.53;;
20814;SDS011;10568;48.176;16.316;2023-03-14T01:52:07;5.00;;;2.30;;
20814;SDS011;10568;48.176;16.316;2023-03-14T01:54:54;3.73;;;2.40;;
20814;SDS011;10568;48.176;16.316;2023-03-14T01:57:58;5.93;;;2.87;;
20814;SDS011;10568;48.176;16.316;2023-03-14T02:00:19;5.40;;;2.90;;
20814;SDS011;10568;48.176;16.316;2023-03-14T02:02:48;3.97;;;2.70;;
20814;SDS011;10568;48.176;16.316;2023-03-14T02:05:20;3.80;;;2.37;;
20814;SDS011;10568;48.176;16.316;2023-03-14T02:07:52;4.90;;;2.77;;
20814;SDS011;10568;48.176;16.316;2023-03-14T02:10:21;4.63;;;3.07;;
20814;SDS011;10568;48.176;16.316;2023-03-14T02:12:49;3.13;;;2.70;;
20814;SDS011;10568;48.176;16.316;2023-03-14T02:15:17;6.97;;;3.27;;
20814;SDS011;10568;48.176;16.316;2023-03-14T02:17:43;3.73;;;2.63;;
20814;SDS011;10568;48.176;16.316;2023-03-14T02:22:37;6.40;;;3.20;;
20814;SDS011;10568;48.176;16.316;2023-03-14T02:25:20;5.60;;;2.87;;
20814;SDS011;10568;48.176;16.316;2023-03-14T02:27:53;3.80;;;2.57;;
20814;SDS011;10568;48.176;16.316;2023-03-14T02:30:20;4.57;;;2.60;;
20814;SDS011;10568;48.176;16.316;2023-03-14T02:32:58;2.93;;;2.40;;
20814;SDS011;10568;48.176;16.316;2023-03-14T02:35:29;5.10;;;2.70;;
20814;SDS011;10568;48.176;16.316;2023-03-14T02:40:34;4.87;;;2.60;;
20814;SDS011;10568;48.176;16.316;2023-03-14T02:43:00;3.77;;;2.70;;
20814;SDS011;10568;48.176;16.316;2023-03-14T02:45:44;5.03;;;2.60;;
20814;SDS011;10568;48.176;16.316;2023-03-14T02:48:14;4.10;;;2.80;;
20814;SDS011;10568;48.176;16.316;2023-03-14T02:50:41;4.40;;;2.33;;
20814;SDS011;10568;48.176;16.316;2023-03-14T02:53:08;5.27;;;2.63;;
20814;SDS011;10568;48.176;16.316;2023-03-14T02:55:34;3.97;;;2.20;;
20814;SDS011;10568;48.176;16.316;2023-03-14T02:58:01;5.00;;;2.47;;
20814;SDS011;10568;48.176;16.316;2023-03-14T03:00:26;4.37;;;2.47;;
20814;SDS011;10568;48.176;16.316;2023-03-14T03:02:53;3.13;;;2.10;;
20814;SDS011;10568;48.176;16.316;2023-03-14T03:05:18;4.07;;;2.67;;
20814;SDS011;10568;48.176;16.316;2023-03-14T03:07:44;3.63;;;2.63;;
20814;SDS011;10568;48.176;16.316;2023-03-14T03:10:10;4.23;;;2.67;;
20814;SDS011;10568;48.176;16.316;2023-03-14T03:12:36;4.60;;;2.50;;
20814;SDS011;10568;48.176;16.316;2023-03-14T03:15:01;3.23;;;2.47;;
20814;SDS011;10568;48.176;16.316;2023-03-14T03:17:27;3.67;;;2.63;;
20814;SDS011;10568;48.176;16.316;2023-03-14T03:19:53;3.03;;;2.40;;
20814;SDS011;10568;48.176;16.316;2023-03-14T03:22:18;6.10;;;3.00;;
20814;SDS011;10568;48.176;16.316;2023-03-14T03:24:44;4.13;;;2.60;;
20814;SDS011;10568;48.176;16.316;2023-03-14T03:27:10;4.30;;;2.53;;
20814;SDS011;10568;48.176;16.316;2023-03-14T03:29:35;3.47;;;2.30;;
20814;SDS011;10568;48.176;16.316;2023-03-14T03:32:01;3.13;;;2.33;;
20814;SDS011;10568;48.176;16.316;2023-03-14T03:34:27;4.40;;;2.70;;
20814;SDS011;10568;48.176;16.316;2023-03-14T03:36:55;2.57;;;2.20;;
20814;SDS011;10568;48.176;16.316;2023-03-14T03:39:22;5.57;;;2.27;;
20814;SDS011;10568;48.176;16.316;2023-03-14T03:41:47;4.80;;;2.43;;
20814;SDS011;10568;48.176;16.316;2023-03-14T03:44:13;4.47;;;2.50;;
20814;SDS011;10568;48.176;16.316;2023-03-14T03:46:38;4.53;;;2.53;;
20814;SDS011;10568;48.176;16.316;2023-03-14T03:49:04;4.40;;;2.70;;
20814;SDS011;10568;48.176;16.316;2023-03-14T03:51:30;4.07;;;2.77;;
20814;SDS011;10568;48.176;16.316;2023-03-14T03:53:56;2.77;;;2.30;;
20814;SDS011;10568;48.176;16.316;2023-03-14T03:56:22;4.80;;;2.40;;
20814;SDS011;10568;48.176;16.316;2023-03-14T03:58:47;7.07;;;3.23;;
20814;SDS011;10568;48.176;16.316;2023-03-14T04:01:13;6.00;;;2.87;;
20814;SDS011;10568;48.176;16.316;2023-03-14T04:03:39;6.83;;;3.00;;
20814;SDS011;10568;48.176;16.316;2023-03-14T04:06:06;3.87;;;2.93;;
20814;SDS011;10568;48.176;16.316;2023-03-14T04:08:33;3.43;;;2.33;;
20814;SDS011;10568;48.176;16.316;2023-03-14T04:11:00;4.73;;;2.80;;
20814;SDS011;10568;48.176;16.316;2023-03-14T04:13:26;3.90;;;2.80;;
20814;SDS011;10568;48.176;16.316;2023-03-14T04:15:53;5.87;;;2.67;;
20814;SDS011;10568;48.176;16.316;2023-03-14T04:18:19;3.83;;;3.00;;
20814;SDS011;10568;48.176;16.316;2023-03-14T04:20:45;6.07;;;2.83;;
20814;SDS011;10568;48.176;16.316;2023-03-14T04:23:16;4.67;;;2.83;;
20814;SDS011;10568;48.176;16.316;2023-03-14T04:25:42;5.47;;;2.93;;
20814;SDS011;10568;48.176;16.316;2023-03-14T04:28:07;5.33;;;3.30;;
20814;SDS011;10568;48.176;16.316;2023-03-14T04:30:33;7.20;;;2.93;;
20814;SDS011;10568;48.176;16.316;2023-03-14T04:32:59;4.77;;;3.27;;
20814;SDS011;10568;48.176;16.316;2023-03-14T04:35:24;3.97;;;2.77;;
20814;SDS011;10568;48.176;16.316;2023-03-14T04:37:50;4.97;;;3.20;;
20814;SDS011;10568;48.176;16.316;2023-03-14T04:40:17;3.97;;;3.27;;
20814;SDS011;10568;48.176;16.316;2023-03-14T04:42:43;5.90;;;3.17;;
20814;SDS011;10568;48.176;16.316;2023-03-14T04:45:09;5.20;;;3.20;;
20814;SDS011;10568;48.176;16.316;2023-03-14T04:47:35;4.83;;;3.23;;
20814;SDS011;10568;48.176;16.316;2023-03-14T04:50:00;3.80;;;2.57;;
20814;SDS011;10568;48.176;16.316;2023-03-14T04:52:26;5.07;;;2.40;;
20814;SDS011;10568;48.176;16.316;2023-03-14T04:54:52;4.17;;;3.00;;
20814;SDS011;10568;48.176;16.316;2023-03-14T04:57:18;3.77;;;2.50;;
20814;SDS011;10568;48.176;16.316;2023-03-14T04:59:43;3.60;;;2.53;;
20814;SDS011;10568;48.176;16.316;2023-03-14T05:02:09;3.83;;;2.60;;
20814;SDS011;10568;48.176;16.316;2023-03-14T05:04:35;5.90;;;2.50;;
20814;SDS011;10568;48.176;16.316;2023-03-14T05:07:01;4.37;;;2.60;;
20814;SDS011;10568;48.176;16.316;2023-03-14T05:09:26;4.43;;;2.50;;
20814;SDS011;10568;48.176;16.316;2023-03-14T05:11:52;4.97;;;2.83;;
20814;SDS011;10568;48.176;16.316;2023-03-14T05:14:18;3.97;;;2.70;;
20814;SDS011;10568;48.176;16.316;2023-03-14T05:16:44;3.20;;;2.40;;
20814;SDS011;10568;48.176;16.316;2023-03-14T05:19:10;3.77;;;2.43;;
20814;SDS011;10568;48.176;16.316;2023-03-14T05:21:36;3.43;;;2.23;;
20814;SDS011;10568;48.176;16.316;2023-03-14T05:24:02;3.00;;;1.97;;
20814;SDS011;10568;48.176;16.316;2023-03-14T05:26:29;4.50;;;2.20;;
20814;SDS011;10568;48.176;16.316;2023-03-14T05:28:55;3.97;;;2.50;;
20814;SDS011;10568;48.176;16.316;2023-03-14T05:31:21;3.50;;;2.20;;
20814;SDS011;10568;48.176;16.316;2023-03-14T05:33:46;6.97;;;2.40;;
20814;SDS011;10568;48.176;16.316;2023-03-14T05:36:12;3.83;;;2.40;;
20814;SDS011;10568;48.176;16.316;2023-03-14T05:38:38;4.33;;;2.40;;
20814;SDS011;10568;48.176;16.316;2023-03-14T05:41:03;4.40;;;2.60;;
20814;SDS011;10568;48.176;16.316;2023-03-14T05:43:29;3.47;;;2.23;;
20814;SDS011;10568;48.176;16.316;2023-03-14T05:45:55;3.40;;;2.40;;
20814;SDS011;10568;48.176;16.316;2023-03-14T05:48:21;2.77;;;2.30;;
20814;SDS011;10568;48.176;16.316;2023-03-14T05:50:47;4.17;;;2.63;;
20814;SDS011;10568;48.176;16.316;2023-03-14T05:53:13;4.17;;;3.00;;
20814;SDS011;10568;48.176;16.316;2023-03-14T05:55:39;5.20;;;2.90;;
20814;SDS011;10568;48.176;16.316;2023-03-14T05:58:05;4.63;;;2.90;;
20814;SDS011;10568;48.176;16.316;2023-03-14T06:00:31;7.07;;;2.97;;
20814;SDS011;10568;48.176;16.316;2023-03-14T06:02:57;5.40;;;3.10;;
20814;SDS011;10568;48.176;16.316;2023-03-14T06:05:23;5.70;;;3.43;;
20814;SDS011;10568;48.176;16.316;2023-03-14T06:07:48;4.30;;;2.80;;
20814;SDS011;10568;48.176;16.316;2023-03-14T06:10:14;5.27;;;3.17;;
20814;SDS011;10568;48.176;16.316;2023-03-14T06:12:40;5.77;;;3.30;;
20814;SDS011;10568;48.176;16.316;2023-03-14T06:15:06;5.13;;;3.47;;
20814;SDS011;10568;48.176;16.316;2023-03-14T06:17:32;6.67;;;3.30;;
20814;SDS011;10568;48.176;16.316;2023-03-14T06:19:58;6.57;;;3.73;;
20814;SDS011;10568;48.176;16.316;2023-03-14T06:22:23;5.97;;;3.30;;
20814;SDS011;10568;48.176;16.316;2023-03-14T06:24:49;5.23;;;3.13;;
20814;SDS011;10568;48.176;16.316;2023-03-14T06:27:15;5.57;;;3.40;;
20814;SDS011;10568;48.176;16.316;2023-03-14T06:29:40;5.57;;;3.00;;
20814;SDS011;10568;48.176;16.316;2023-03-14T06:32:06;5.27;;;3.40;;
20814;SDS011;10568;48.176;16.316;2023-03-14T06:34:32;3.73;;;2.90;;
20814;SDS011;10568;48.176;16.316;2023-03-14T06:36:58;5.93;;;3.37;;
20814;SDS011;10568;48.176;16.316;2023-03-14T06:39:23;6.43;;;3.70;;
20814;SDS011;10568;48.176;16.316;2023-03-14T06:41:49;4.77;;;3.30;;
20814;SDS011;10568;48.176;16.316;2023-03-14T06:44:15;6.80;;;3.70;;
20814;SDS011;10568;48.176;16.316;2023-03-14T06:46:40;8.43;;;3.63;;
20814;SDS011;10568;48.176;16.316;2023-03-14T06:49:06;4.63;;;3.50;;
20814;SDS011;10568;48.176;16.316;2023-03-14T06:51:32;7.57;;;3.60;;
20814;SDS011;10568;48.176;16.316;2023-03-14T06:53:57;7.80;;;3.83;;
20814;SDS011;10568;48.176;16.316;2023-03-14T06:56:23;5.63;;;3.50;;
20814;SDS011;10568;48.176;16.316;2023-03-14T06:58:49;7.30;;;3.80;;
20814;SDS011;10568;48.176;16.316;2023-03-14T07:01:22;5.83;;;3.77;;
20814;SDS011;10568;48.176;16.316;2023-03-14T07:03:49;8.50;;;3.87;;
20814;SDS011;10568;48.176;16.316;2023-03-14T07:06:15;7.83;;;3.80;;
20814;SDS011;10568;48.176;16.316;2023-03-14T07:08:41;5.57;;;3.70;;
20814;SDS011;10568;48.176;16.316;2023-03-14T07:11:07;6.43;;;3.77;;
20814;SDS011;10568;48.176;16.316;2023-03-14T07:13:32;9.30;;;4.10;;
20814;SDS011;10568;48.176;16.316;2023-03-14T07:15:58;5.07;;;3.57;;
20814;SDS011;10568;48.176;16.316;2023-03-14T07:18:24;6.93;;;4.10;;
20814;SDS011;10568;48.176;16.316;2023-03-14T07:20:49;8.43;;;4.03;;
20814;SDS011;10568;48.176;16.316;2023-03-14T07:23:15;7.57;;;4.30;;
20814;SDS011;10568;48.176;16.316;2023-03-14T07:25:41;5.50;;;3.70;;
20814;SDS011;10568;48.176;16.316;2023-03-14T07:28:06;5.00;;;3.77;;
20814;SDS011;10568;48.176;16.316;2023-03-14T07:30:32;6.50;;;3.60;;
20814;SDS011;10568;48.176;16.316;2023-03-14T07:32:58;6.50;;;4.20;;
20814;SDS011;10568;48.176;16.316;2023-03-14T07:35:23;6.47;;;3.93;;
20814;SDS011;10568;48.176;16.316;2023-03-14T07:37:49;9.20;;;4.20;;
20814;SDS011;10568;48.176;16.316;2023-03-14T07:40:14;4.00;;;2.97;;
20814;SDS011;10568;48.176;16.316;2023-03-14T07:42:41;6.13;;;3.57;;
20814;SDS011;10568;48.176;16.316;2023-03-14T07:45:07;7.97;;;3.60;;
20814;SDS011;10568;48.176;16.316;2023-03-14T07:47:34;2.57;;;2.20;;
20814;SDS011;10568;48.176;16.316;2023-03-14T07:50:00;5.23;;;2.73;;
20814;SDS011;10568;48.176;16.316;2023-03-14T07:52:27;4.73;;;2.33;;
20814;SDS011;10568;48.176;16.316;2023-03-14T07:54:53;3.03;;;2.07;;
20814;SDS011;10568;48.176;16.316;2023-03-14T07:57:18;4.97;;;2.30;;
20814;SDS011;10568;48.176;16.316;2023-03-14T07:59:44;3.67;;;1.90;;
20814;SDS011;10568;48.176;16.316;2023-03-14T08:02:10;6.03;;;1.90;;
20814;SDS011;10568;48.176;16.316;2023-03-14T08:04:37;2.80;;;1.57;;
20814;SDS011;10568;48.176;16.316;2023-03-14T08:10:25;1.43;;;1.07;;
20814;SDS011;10568;48.176;16.316;2023-03-14T08:12:56;2.70;;;1.10;;
20814;SDS011;10568;48.176;16.316;2023-03-14T08:15:26;1.23;;;1.00;;
20814;SDS011;10568;48.176;16.316;2023-03-14T08:17:55;4.47;;;1.20;;
20814;SDS011;10568;48.176;16.316;2023-03-14T08:20:21;2.87;;;1.07;;
20814;SDS011;10568;48.176;16.316;2023-03-14T08:22:49;1.47;;;0.97;;
20814;SDS011;10568;48.176;16.316;2023-03-14T08:25:14;1.73;;;1.10;;
20814;SDS011;10568;48.176;16.316;2023-03-14T08:27:40;0.50;;;0.47;;
20814;SDS011;10568;48.176;16.316;2023-03-14T08:30:10;0.60;;;0.53;;
20814;SDS011;10568;48.176;16.316;2023-03-14T08:32:38;2.07;;;0.40;;
20814;SDS011;10568;48.176;16.316;2023-03-14T08:35:04;0.57;;;0.40;;
20814;SDS011;10568;48.176;16.316;2023-03-14T08:37:31;1.00;;;0.50;;
20814;SDS011;10568;48.176;16.316;2023-03-14T08:39:58;0.50;;;0.40;;
20814;SDS011;10568;48.176;16.316;2023-03-14T08:42:23;1.27;;;0.50;;
20814;SDS011;10568;48.176;16.316;2023-03-14T08:47:43;1.03;;;0.53;;
20814;SDS011;10568;48.176;16.316;2023-03-14T08:50:10;0.57;;;0.40;;
20814;SDS011;10568;48.176;16.316;2023-03-14T08:52:36;0.83;;;0.57;;
20814;SDS011;10568;48.176;16.316;2023-03-14T08:55:07;1.30;;;0.80;;
20814;SDS011;10568;48.176;16.316;2023-03-14T08:57:33;1.30;;;0.70;;
20814;SDS011;10568;48.176;16.316;2023-03-14T08:59:59;0.87;;;0.70;;
20814;SDS011;10568;48.176;16.316;2023-03-14T09:02:25;2.60;;;0.93;;
20814;SDS011;10568;48.176;16.316;2023-03-14T09:04:51;1.43;;;0.93;;
20814;SDS011;10568;48.176;16.316;2023-03-14T09:07:18;3.10;;;1.10;;
20814;SDS011;10568;48.176;16.316;2023-03-14T09:09:44;1.67;;;1.00;;
20814;SDS011;10568;48.176;16.316;2023-03-14T09:12:10;2.40;;;1.00;;
20814;SDS011;10568;48.176;16.316;2023-03-14T09:14:36;1.10;;;1.00;;
20814;SDS011;10568;48.176;16.316;2023-03-14T09:17:02;2.20;;;1.33;;
20814;SDS011;10568;48.176;16.316;2023-03-14T09:19:28;4.07;;;1.70;;
20814;SDS011;10568;48.176;16.316;2023-03-14T09:21:54;2.30;;;1.60;;
20814;SDS011;10568;48.176;16.316;2023-03-14T09:24:20;3.43;;;1.77;;
20814;SDS011;10568;48.176;16.316;2023-03-14T09:26:45;4.13;;;1.40;;
20814;SDS011;10568;48.176;16.316;2023-03-14T09:29:11;3.53;;;1.60;;
20814;SDS011;10568;48.176;16.316;2023-03-14T09:31:37;2.93;;;1.37;;
20814;SDS011;10568;48.176;16.316;2023-03-14T09:34:03;2.23;;;1.47;;
20814;SDS011;10568;48.176;16.316;2023-03-14T09:36:29;2.30;;;1.57;;
20814;SDS011;10568;48.176;16.316;2023-03-14T09:38:55;3.87;;;1.50;;
20814;SDS011;10568;48.176;16.316;2023-03-14T09:41:25;4.80;;;1.90;;
20814;SDS011;10568;48.176;16.316;2023-03-14T09:43:57;3.17;;;1.57;;
20814;SDS011;10568;48.176;16.316;2023-03-14T09:46:37;2.80;;;1.70;;
20814;SDS011;10568;48.176;16.316;2023-03-14T09:49:09;3.17;;;1.70;;
20814;SDS011;10568;48.176;16.316;2023-03-14T09:51:40;2.60;;;1.80;;
20814;SDS011;10568;48.176;16.316;2023-03-14T09:54:11;2.73;;;1.50;;
20814;SDS011;10568;48.176;16.316;2023-03-14T09:56:56;3.97;;;1.73;;
20814;SDS011;10568;48.176;16.316;2023-03-14T09:59:21;1.77;;;1.53;;
20814;SDS011;10568;48.176;16.316;2023-03-14T10:01:47;3.00;;;2.00;;
20814;SDS011;10568;48.176;16.316;2023-03-14T10:04:15;2.73;;;1.50;;
20814;SDS011;10568;48.176;16.316;2023-03-14T10:06:46;2.57;;;1.60;;
20814;SDS011;10568;48.176;16.316;2023-03-14T10:09:15;2.97;;;2.20;;
20814;SDS011;10568;48.176;16.316;2023-03-14T10:11:56;3.40;;;1.90;;
20814;SDS011;10568;48.176;16.316;2023-03-14T10:14:35;2.13;;;1.47;;
20814;SDS011;10568;48.176;16.316;2023-03-14T10:17:07;3.77;;;2.00;;
20814;SDS011;10568;48.176;16.316;2023-03-14T10:19:36;4.07;;;1.70;;
20814;SDS011;10568;48.176;16.316;2023-03-14T10:22:03;1.90;;;1.40;;
20814;SDS011;10568;48.176;16.316;2023-03-14T10:24:31;1.60;;;1.30;;
20814;SDS011;10568;48.176;16.316;2023-03-14T10:27:00;1.10;;;0.90;;
20814;SDS011;10568;48.176;16.316;2023-03-14T10:29:29;2.50;;;0.80;;
20814;SDS011;10568;48.176;16.316;2023-03-14T10:32:00;1.43;;;0.77;;
20814;SDS011;10568;48.176;16.316;2023-03-14T10:34:30;1.47;;;0.60;;
20814;SDS011;10568;48.176;16.316;2023-03-14T10:39:51;0.50;;;0.20;;
20814;SDS011;10568;48.176;16.316;2023-03-14T10:42:19;0.50;;;0.40;;
20814;SDS011;10568;48.176;16.316;2023-03-14T10:44:57;0.40;;;0.40;;
20814;SDS011;10568;48.176;16.316;2023-03-14T10:47:26;0.43;;;0.27;;
20814;SDS011;10568;48.176;16.316;2023-03-14T10:49:56;0.93;;;0.30;;
20814;SDS011;10568;48.176;16.316;2023-03-14T10:52:46;1.10;;;0.30;;
20814;SDS011;10568;48.176;16.316;2023-03-14T10:55:13;0.83;;;0.30;;
20814;SDS011;10568;48.176;16.316;2023-03-14T10:57:43;0.20;;;0.20;;
20814;SDS011;10568;48.176;16.316;2023-03-14T11:00:15;0.20;;;0.20;;
20814;SDS011;10568;48.176;16.316;2023-03-14T11:11:07;0.40;;;0.40;;
20814;SDS011;10568;48.176;16.316;2023-03-14T11:13:48;0.53;;;0.20;;
20814;SDS011;10568;48.176;16.316;2023-03-14T11:21:37;0.20;;;0.20;;
20814;SDS011;10568;48.176;16.316;2023-03-14T11:26:48;0.83;;;0.27;;
20814;SDS011;10568;48.176;16.316;2023-03-14T11:32:21;0.30;;;0.20;;
20814;SDS011;10568;48.176;16.316;2023-03-14T11:37:40;0.50;;;0.27;;
20814;SDS011;10568;48.176;16.316;2023-03-14T11:40:18;0.57;;;0.30;;
20814;SDS011;10568;48.176;16.316;2023-03-14T11:42:54;0.30;;;0.20;;
20814;SDS011;10568;48.176;16.316;2023-03-14T11:46:03;1.03;;;0.50;;
20814;SDS011;10568;48.176;16.316;2023-03-14T11:49:07;0.23;;;0.10;;
20814;SDS011;10568;48.176;16.316;2023-03-14T11:51:25;0.20;;;0.20;;
20814;SDS011;10568;48.176;16.316;2023-03-14T11:56:53;2.83;;;0.20;;
20814;SDS011;10568;48.176;16.316;2023-03-14T12:00:05;0.67;;;0.20;;
20814;SDS011;10568;48.176;16.316;2023-03-14T12:09:04;0.30;;;0.20;;
20814;SDS011;10568;48.176;16.316;2023-03-14T12:11:19;0.20;;;0.20;;
20814;SDS011;10568;48.176;16.316;2023-03-14T12:13:55;1.07;;;0.20;;
20814;SDS011;10568;48.176;16.316;2023-03-14T12:19:36;0.20;;;0.20;;
20814;SDS011;10568;48.176;16.316;2023-03-14T12:22:06;0.43;;;0.20;;
20814;SDS011;10568;48.176;16.316;2023-03-14T12:24:51;1.10;;;0.33;;
20814;SDS011;10568;48.176;16.316;2023-03-14T12:27:42;0.60;;;0.30;;
20814;SDS011;10568;48.176;16.316;2023-03-14T12:38:15;0.30;;;0.20;;
20814;SDS011;10568;48.176;16.316;2023-03-14T12:41:20;0.93;;;0.40;;
20814;SDS011;10568;48.176;16.316;2023-03-14T12:43:52;0.63;;;0.30;;
20814;SDS011;10568;48.176;16.316;2023-03-14T12:48:49;0.30;;;0.20;;
20814;SDS011;10568;48.176;16.316;2023-03-14T12:51:19;0.10;;;0.10;;
20814;SDS011;10568;48.176;16.316;2023-03-14T12:59:51;0.20;;;0.20;;
20814;SDS011;10568;48.176;16.316;2023-03-14T13:10:19;0.20;;;0.20;;
20814;SDS011;10568;48.176;16.316;2023-03-14T13:15:20;1.50;;;0.30;;
20814;SDS011;10568;48.176;16.316;2023-03-14T13:17:47;0.57;;;0.30;;
20814;SDS011;10568;48.176;16.316;2023-03-14T13:21:02;0.50;;;0.30;;
20814;SDS011;10568;48.176;16.316;2023-03-14T13:23:03;0.20;;;0.20;;
20814;SDS011;10568;48.176;16.316;2023-03-14T13:25:32;0.20;;;0.20;;
20814;SDS011;10568;48.176;16.316;2023-03-14T13:28:00;1.03;;;0.20;;
20814;SDS011;10568;48.176;16.316;2023-03-14T13:30:27;1.10;;;0.20;;
20814;SDS011;10568;48.176;16.316;2023-03-14T13:33:02;0.10;;;0.10;;
20814;SDS011;10568;48.176;16.316;2023-03-14T13:35:29;0.63;;;0.30;;
20814;SDS011;10568;48.176;16.316;2023-03-14T13:38:04;0.40;;;0.20;;
20814;SDS011;10568;48.176;16.316;2023-03-14T13:40:31;0.30;;;0.10;;
20814;SDS011;10568;48.176;16.316;2023-03-14T13:43:02;0.90;;;0.20;;
20814;SDS011;10568;48.176;16.316;2023-03-14T13:45:45;0.10;;;0.10;;
20814;SDS011;10568;48.176;16.316;2023-03-14T13:48:14;0.20;;;0.20;;
20814;SDS011;10568;48.176;16.316;2023-03-14T13:50:44;0.77;;;0.30;;
20814;SDS011;10568;48.176;16.316;2023-03-14T13:53:20;0.30;;;0.30;;
20814;SDS011;10568;48.176;16.316;2023-03-14T13:55:46;0.70;;;0.30;;
20814;SDS011;10568;48.176;16.316;2023-03-14T13:58:20;0.10;;;0.10;;
20814;SDS011;10568;48.176;16.316;2023-03-14T14:01:01;0.20;;;0.20;;
20814;SDS011;10568;48.176;16.316;2023-03-14T14:03:31;0.93;;;0.20;;
20814;SDS011;10568;48.176;16.316;2023-03-14T14:05:58;0.57;;;0.20;;
20814;SDS011;10568;48.176;16.316;2023-03-14T14:08:25;0.43;;;0.20;;
20814;SDS011;10568;48.176;16.316;2023-03-14T14:10:52;0.20;;;0.20;;
20814;SDS011;10568;48.176;16.316;2023-03-14T14:13:22;1.50;;;0.30;;
20814;SDS011;10568;48.176;16.316;2023-03-14T14:15:51;0.60;;;0.20;;
20814;SDS011;10568;48.176;16.316;2023-03-14T14:18:19;0.67;;;0.20;;
20814;SDS011;10568;48.176;16.316;2023-03-14T14:20:50;0.20;;;0.20;;
20814;SDS011;10568;48.176;16.316;2023-03-14T14:23:17;0.47;;;0.30;;
20814;SDS011;10568;48.176;16.316;2023-03-14T14:25:54;1.67;;;0.40;;
20814;SDS011;10568;48.176;16.316;2023-03-14T14:28:34;0.10;;;0.10;;
20814;SDS011;10568;48.176;16.316;2023-03-14T14:33:45;0.20;;;0.20;;
20814;SDS011;10568;48.176;16.316;2023-03-14T14:38:57;0.17;;;0.17;;
20814;SDS011;10568;48.176;16.316;2023-03-14T14:41:28;0.20;;;0.20;;
20814;SDS011;10568;48.176;16.316;2023-03-14T14:43:56;0.30;;;0.30;;
20814;SDS011;10568;48.176;16.316;2023-03-14T14:46:23;0.20;;;0.20;;
20814;SDS011;10568;48.176;16.316;2023-03-14T14:48:57;0.20;;;0.20;;
20814;SDS011;10568;48.176;16.316;2023-03-14T14:51:30;0.50;;;0.30;;
20814;SDS011;10568;48.176;16.316;2023-03-14T14:54:02;1.70;;;0.20;;
20814;SDS011;10568;48.176;16.316;2023-03-14T14:56:34;0.33;;;0.20;;
20814;SDS011;10568;48.176;16.316;2023-03-14T14:59:01;0.20;;;0.20;;
20814;SDS011;10568;48.176;16.316;2023-03-14T15:01:34;0.23;;;0.23;;
20814;SDS011;10568;48.176;16.316;2023-03-14T15:04:03;0.60;;;0.30;;
20814;SDS011;10568;48.176;16.316;2023-03-14T15:06:35;0.20;;;0.20;;
20814;SDS011;10568;48.176;16.316;2023-03-14T15:09:00;0.30;;;0.20;;
20814;SDS011;10568;48.176;16.316;2023-03-14T15:11:26;0.40;;;0.40;;
20814;SDS011;10568;48.176;16.316;2023-03-14T15:13:52;0.57;;;0.40;;
20814;SDS011;10568;48.176;16.316;2023-03-14T15:16:20;0.97;;;0.50;;
20814;SDS011;10568;48.176;16.316;2023-03-14T15:18:55;1.87;;;0.50;;
20814;SDS011;10568;48.176;16.316;2023-03-14T15:21:23;1.30;;;0.47;;
20814;SDS011;10568;48.176;16.316;2023-03-14T15:23:50;0.30;;;0.30;;
20814;SDS011;10568;48.176;16.316;2023-03-14T15:26:17;1.00;;;0.70;;
20814;SDS011;10568;48.176;16.316;2023-03-14T15:28:44;0.40;;;0.40;;
20814;SDS011;10568;48.176;16.316;2023-03-14T15:31:11;0.40;;;0.40;;
20814;SDS011;10568;48.176;16.316;2023-03-14T15:33:38;1.73;;;0.60;;
20814;SDS011;10568;48.176;16.316;2023-03-14T15:36:05;1.37;;;0.50;;
20814;SDS011;10568;48.176;16.316;2023-03-14T15:38:44;2.20;;;0.70;;
20814;SDS011;10568;48.176;16.316;2023-03-14T15:41:10;0.53;;;0.50;;
20814;SDS011;10568;48.176;16.316;2023-03-14T15:43:36;0.90;;;0.50;;
20814;SDS011;10568;48.176;16.316;2023-03-14T15:46:01;2.23;;;0.67;;
20814;SDS011;10568;48.176;16.316;2023-03-14T15:48:27;0.73;;;0.50;;
20814;SDS011;10568;48.176;16.316;2023-03-14T15:50:52;0.67;;;0.50;;
20814;SDS011;10568;48.176;16.316;2023-03-14T15:53:18;0.40;;;0.40;;
20814;SDS011;10568;48.176;16.316;2023-03-14T15:55:44;3.40;;;0.83;;
20814;SDS011;10568;48.176;16.316;2023-03-14T15:58:11;0.83;;;0.60;;
20814;SDS011;10568;48.176;16.316;2023-03-14T16:00:41;0.50;;;0.43;;
20814;SDS011;10568;48.176;16.316;2023-03-14T16:03:07;1.10;;;0.80;;